WZZ344 LWSK-LIRF
Flight info
| Callsign | WZZ344 |
|---|---|
| Flight time | 1h 13m |
| Altitude | 34000 |
| Route | GOSTI DCT MAVAR DCT DIRES DCT TROTA DCT TOPNO DCT EKTOL DCT IPKAM DCT TEA DCT SIPRO Z803 LAT |
| Aircraft | A320/M-SDE1E2E3FGIJ1J4RWXY/LB1 |
Departure
| Time | 2026-05-07 17:06 |
|---|---|
| Airport | Skopje International Airport (LWSK) |
Arrival
| Time | 2026-05-07 18:19 |
|---|---|
| Airport | Rome–Fiumicino Leonardo da Vinci International Airport (LIRF) |
| Time | Latitude | Longitude | Altitude | Speed | Heading |
|---|---|---|---|---|---|
| 2026-05-07 16:30 | 41.96074 | 21.62588 | 783 ft | 0 kts | 73° |
| 2026-05-07 16:31 | 41.96074 | 21.62589 | 784 ft | 0 kts | 73° |
| 2026-05-07 16:54 | 41.96074 | 21.62588 | 783 ft | 0 kts | 73° |
| 2026-05-07 16:59 | 41.96069 | 21.62561 | 783 ft | 4 kts | 89° |
| 2026-05-07 16:59 | 41.96074 | 21.62530 | 783 ft | 4 kts | 138° |
| 2026-05-07 16:59 | 41.96085 | 21.62520 | 784 ft | 0 kts | 165° |
| 2026-05-07 17:01 | 41.96083 | 21.62521 | 784 ft | 2 kts | 165° |
| 2026-05-07 17:02 | 41.96047 | 21.62534 | 783 ft | 7 kts | 165° |
| 2026-05-07 17:02 | 41.95988 | 21.62557 | 783 ft | 10 kts | 166° |
| 2026-05-07 17:02 | 41.95925 | 21.62525 | 783 ft | 13 kts | 241° |
| 2026-05-07 17:02 | 41.95831 | 21.62529 | 782 ft | 17 kts | 165° |
| 2026-05-07 17:03 | 41.95706 | 21.62574 | 781 ft | 20 kts | 164° |
| 2026-05-07 17:03 | 41.95611 | 21.62609 | 780 ft | 22 kts | 165° |
| 2026-05-07 17:03 | 41.95507 | 21.62645 | 780 ft | 15 kts | 166° |
| 2026-05-07 17:03 | 41.95345 | 21.62700 | 779 ft | 21 kts | 166° |
| 2026-05-07 17:04 | 41.95215 | 21.62746 | 778 ft | 18 kts | 165° |
| 2026-05-07 17:04 | 41.95139 | 21.62683 | 778 ft | 8 kts | 257° |
| 2026-05-07 17:04 | 41.95125 | 21.62602 | 779 ft | 9 kts | 256° |
| 2026-05-07 17:04 | 41.95110 | 21.62518 | 780 ft | 7 kts | 264° |
| 2026-05-07 17:05 | 41.95137 | 21.62498 | 779 ft | 9 kts | 347° |
| 2026-05-07 17:05 | 41.95372 | 21.62418 | 779 ft | 70 kts | 346° |
| 2026-05-07 17:05 | 41.96052 | 21.62181 | 784 ft | 129 kts | 345° |
| 2026-05-07 17:05 | 41.97076 | 21.61825 | 834 ft | 168 kts | 347° |
| 2026-05-07 17:06 | 41.98188 | 21.61453 | 1474 ft | 165 kts | 347° |
| 2026-05-07 17:06 | 41.99317 | 21.61073 | 2007 ft | 174 kts | 345° |
| 2026-05-07 17:06 | 42.00562 | 21.60752 | 2294 ft | 197 kts | 2° |
| 2026-05-07 17:06 | 42.01899 | 21.61412 | 2592 ft | 220 kts | 44° |
| 2026-05-07 17:07 | 42.02648 | 21.63252 | 2994 ft | 239 kts | 84° |
| 2026-05-07 17:07 | 42.02318 | 21.65444 | 3626 ft | 248 kts | 123° |
| 2026-05-07 17:07 | 42.01021 | 21.66939 | 4401 ft | 251 kts | 161° |
| 2026-05-07 17:07 | 41.99291 | 21.67104 | 5213 ft | 257 kts | 192° |
| 2026-05-07 17:08 | 41.97633 | 21.66153 | 5974 ft | 265 kts | 218° |
| 2026-05-07 17:08 | 41.96442 | 21.64275 | 6834 ft | 268 kts | 244° |
| 2026-05-07 17:08 | 41.95738 | 21.61947 | 7746 ft | 269 kts | 249° |
| 2026-05-07 17:08 | 41.95073 | 21.59591 | 8676 ft | 271 kts | 250° |
| 2026-05-07 17:09 | 41.94410 | 21.57223 | 9600 ft | 271 kts | 250° |
| 2026-05-07 17:09 | 41.93739 | 21.54839 | 10389 ft | 279 kts | 250° |
| 2026-05-07 17:09 | 41.93023 | 21.52297 | 10616 ft | 302 kts | 250° |
| 2026-05-07 17:09 | 41.92254 | 21.49563 | 10899 ft | 322 kts | 250° |
| 2026-05-07 17:10 | 41.91451 | 21.46725 | 11502 ft | 329 kts | 250° |
| 2026-05-07 17:10 | 41.90629 | 21.43839 | 12214 ft | 332 kts | 250° |
| 2026-05-07 17:10 | 41.89797 | 21.40929 | 12934 ft | 336 kts | 250° |
| 2026-05-07 17:10 | 41.88953 | 21.37983 | 13624 ft | 340 kts | 250° |
| 2026-05-07 17:11 | 41.88102 | 21.35004 | 14284 ft | 344 kts | 250° |
| 2026-05-07 17:11 | 41.87243 | 21.31998 | 14879 ft | 347 kts | 250° |
| 2026-05-07 17:11 | 41.86375 | 21.28963 | 15473 ft | 350 kts | 250° |
| 2026-05-07 17:11 | 41.85499 | 21.25898 | 16064 ft | 354 kts | 250° |
| 2026-05-07 17:12 | 41.84612 | 21.22801 | 16679 ft | 357 kts | 250° |
| 2026-05-07 17:12 | 41.83716 | 21.19673 | 17279 ft | 361 kts | 250° |
| 2026-05-07 17:12 | 41.82808 | 21.16520 | 17903 ft | 364 kts | 250° |
| 2026-05-07 17:12 | 41.81888 | 21.13334 | 18470 ft | 369 kts | 250° |
| 2026-05-07 17:13 | 41.80962 | 21.10106 | 18983 ft | 373 kts | 251° |
| 2026-05-07 17:13 | 41.80317 | 21.06736 | 19582 ft | 375 kts | 259° |
| 2026-05-07 17:13 | 41.79804 | 21.03296 | 20191 ft | 378 kts | 259° |
| 2026-05-07 17:13 | 41.79282 | 20.99836 | 20791 ft | 380 kts | 259° |
| 2026-05-07 17:14 | 41.78756 | 20.96348 | 21365 ft | 383 kts | 258° |
| 2026-05-07 17:14 | 41.78227 | 20.92838 | 21929 ft | 386 kts | 258° |
| 2026-05-07 17:14 | 41.77694 | 20.89304 | 22461 ft | 388 kts | 258° |
| 2026-05-07 17:14 | 41.77157 | 20.85746 | 22971 ft | 392 kts | 258° |
| 2026-05-07 17:15 | 41.76617 | 20.82157 | 23473 ft | 394 kts | 258° |
| 2026-05-07 17:15 | 41.76077 | 20.78544 | 23941 ft | 397 kts | 259° |
| 2026-05-07 17:15 | 41.75535 | 20.74914 | 24388 ft | 398 kts | 259° |
| 2026-05-07 17:15 | 41.74988 | 20.71279 | 24805 ft | 399 kts | 259° |
| 2026-05-07 17:16 | 41.74436 | 20.67626 | 25229 ft | 401 kts | 259° |
| 2026-05-07 17:16 | 41.73882 | 20.63961 | 25655 ft | 402 kts | 259° |
| 2026-05-07 17:16 | 41.73322 | 20.60282 | 26059 ft | 404 kts | 259° |
| 2026-05-07 17:16 | 41.72760 | 20.56594 | 26487 ft | 405 kts | 259° |
| 2026-05-07 17:17 | 41.72195 | 20.52895 | 26895 ft | 406 kts | 259° |
| 2026-05-07 17:17 | 41.71629 | 20.49186 | 27295 ft | 408 kts | 259° |
| 2026-05-07 17:17 | 41.71054 | 20.45467 | 27735 ft | 408 kts | 259° |
| 2026-05-07 17:17 | 41.70477 | 20.41753 | 28190 ft | 408 kts | 260° |
| 2026-05-07 17:18 | 41.69907 | 20.38077 | 28612 ft | 409 kts | 260° |
| 2026-05-07 17:18 | 41.69327 | 20.34340 | 29002 ft | 411 kts | 260° |
| 2026-05-07 17:18 | 41.68745 | 20.30591 | 29361 ft | 412 kts | 260° |
| 2026-05-07 17:18 | 41.68159 | 20.26831 | 29709 ft | 414 kts | 260° |
| 2026-05-07 17:19 | 41.67573 | 20.23067 | 30176 ft | 413 kts | 260° |
| 2026-05-07 17:19 | 41.66988 | 20.19325 | 30643 ft | 410 kts | 260° |
| 2026-05-07 17:19 | 41.66404 | 20.15610 | 31135 ft | 406 kts | 260° |
| 2026-05-07 17:19 | 41.65825 | 20.11930 | 31668 ft | 403 kts | 260° |
| 2026-05-07 17:20 | 41.65251 | 20.08285 | 32230 ft | 399 kts | 260° |
| 2026-05-07 17:20 | 41.64685 | 20.04683 | 32767 ft | 394 kts | 260° |
| 2026-05-07 17:20 | 41.64125 | 20.01135 | 33422 ft | 386 kts | 261° |
| 2026-05-07 17:20 | 41.63573 | 19.97649 | 33944 ft | 380 kts | 261° |
| 2026-05-07 17:21 | 41.63028 | 19.94210 | 34074 ft | 377 kts | 261° |
| 2026-05-07 17:21 | 41.62485 | 19.90798 | 34089 ft | 375 kts | 261° |
| 2026-05-07 17:21 | 41.61404 | 19.84003 | 33922 ft | 369 kts | 261° |
| 2026-05-07 17:22 | 41.60867 | 19.80647 | 33149 ft | 371 kts | 261° |
| 2026-05-07 17:22 | 41.60325 | 19.77261 | 32385 ft | 375 kts | 260° |
| 2026-05-07 17:22 | 41.59776 | 19.73831 | 32145 ft | 381 kts | 260° |
| 2026-05-07 17:22 | 41.59212 | 19.70320 | 32055 ft | 391 kts | 260° |
| 2026-05-07 17:23 | 41.58048 | 19.63084 | 32070 ft | 403 kts | 260° |
| 2026-05-07 17:23 | 41.56859 | 19.55742 | 32084 ft | 405 kts | 260° |
| 2026-05-07 17:24 | 41.55647 | 19.48303 | 32068 ft | 415 kts | 260° |
| 2026-05-07 17:24 | 41.54416 | 19.40768 | 32069 ft | 414 kts | 259° |
| 2026-05-07 17:25 | 41.53186 | 19.33264 | 32071 ft | 413 kts | 259° |
| 2026-05-07 17:25 | 41.51950 | 19.25772 | 32069 ft | 413 kts | 259° |
| 2026-05-07 17:26 | 41.50712 | 19.18277 | 32080 ft | 414 kts | 259° |
| 2026-05-07 17:26 | 41.49465 | 19.10771 | 32091 ft | 415 kts | 259° |
| 2026-05-07 17:27 | 41.48211 | 19.03277 | 32092 ft | 414 kts | 259° |
| 2026-05-07 17:27 | 41.46951 | 18.95780 | 32091 ft | 414 kts | 259° |
| 2026-05-07 17:28 | 41.45692 | 18.88290 | 32092 ft | 414 kts | 259° |
| 2026-05-07 17:28 | 41.44431 | 18.80816 | 32073 ft | 413 kts | 259° |
| 2026-05-07 17:29 | 41.43173 | 18.73426 | 32063 ft | 410 kts | 259° |
| 2026-05-07 17:29 | 41.41906 | 18.66018 | 32056 ft | 410 kts | 259° |
| 2026-05-07 17:30 | 41.40641 | 18.58622 | 32061 ft | 410 kts | 259° |
| 2026-05-07 17:30 | 41.39374 | 18.51226 | 32054 ft | 410 kts | 259° |
| 2026-05-07 17:31 | 41.38102 | 18.43828 | 32068 ft | 410 kts | 259° |
| 2026-05-07 17:31 | 41.36815 | 18.36427 | 32076 ft | 410 kts | 258° |
| 2026-05-07 17:32 | 41.35531 | 18.29027 | 32046 ft | 409 kts | 258° |
| 2026-05-07 17:32 | 41.34467 | 18.22902 | 32050 ft | 409 kts | 258° |
| 2026-05-07 17:33 | 41.32961 | 18.14292 | 32050 ft | 409 kts | 258° |
| 2026-05-07 17:33 | 41.31660 | 18.06932 | 32043 ft | 409 kts | 258° |
| 2026-05-07 17:34 | 41.30354 | 17.99578 | 32045 ft | 409 kts | 258° |
| 2026-05-07 17:34 | 41.29038 | 17.92217 | 32051 ft | 409 kts | 258° |
| 2026-05-07 17:35 | 41.27719 | 17.84848 | 32056 ft | 410 kts | 258° |
| 2026-05-07 17:35 | 41.26414 | 17.77529 | 32057 ft | 410 kts | 258° |
| 2026-05-07 17:36 | 41.25094 | 17.70169 | 32028 ft | 409 kts | 258° |
| 2026-05-07 17:36 | 41.23769 | 17.62832 | 32025 ft | 408 kts | 258° |
| 2026-05-07 17:37 | 41.22446 | 17.55515 | 32032 ft | 407 kts | 258° |
| 2026-05-07 17:37 | 41.21126 | 17.48211 | 32038 ft | 407 kts | 258° |
| 2026-05-07 17:38 | 41.19794 | 17.40907 | 32026 ft | 407 kts | 258° |
| 2026-05-07 17:38 | 41.18452 | 17.33606 | 32047 ft | 407 kts | 257° |
| 2026-05-07 17:39 | 41.17101 | 17.26313 | 32027 ft | 406 kts | 257° |
| 2026-05-07 17:39 | 41.15758 | 17.19041 | 32018 ft | 405 kts | 257° |
| 2026-05-07 17:40 | 41.14417 | 17.11776 | 32023 ft | 405 kts | 257° |
| 2026-05-07 17:40 | 41.13071 | 17.04518 | 32034 ft | 405 kts | 257° |
| 2026-05-07 17:41 | 41.11717 | 16.97264 | 32015 ft | 404 kts | 257° |
| 2026-05-07 17:41 | 41.10360 | 16.90030 | 32029 ft | 405 kts | 257° |
| 2026-05-07 17:42 | 41.09002 | 16.82789 | 32021 ft | 405 kts | 257° |
| 2026-05-07 17:42 | 41.07632 | 16.75550 | 32024 ft | 405 kts | 257° |
| 2026-05-07 17:43 | 41.06252 | 16.68302 | 32044 ft | 405 kts | 256° |
| 2026-05-07 17:43 | 41.04872 | 16.61060 | 32061 ft | 406 kts | 256° |
| 2026-05-07 17:44 | 41.03486 | 16.53799 | 32055 ft | 407 kts | 256° |
| 2026-05-07 17:44 | 41.02090 | 16.46535 | 32056 ft | 407 kts | 256° |
| 2026-05-07 17:45 | 41.00702 | 16.39320 | 32027 ft | 407 kts | 256° |
| 2026-05-07 17:45 | 40.99309 | 16.32052 | 32046 ft | 408 kts | 256° |
| 2026-05-07 17:46 | 40.97900 | 16.24784 | 32045 ft | 408 kts | 256° |
| 2026-05-07 17:46 | 40.96478 | 16.17518 | 32038 ft | 408 kts | 256° |
| 2026-05-07 17:47 | 40.95553 | 16.10140 | 32002 ft | 409 kts | 269° |
| 2026-05-07 17:47 | 40.96543 | 16.02698 | 31987 ft | 413 kts | 279° |
| 2026-05-07 17:48 | 40.97819 | 15.95278 | 31999 ft | 414 kts | 279° |
| 2026-05-07 17:48 | 40.99080 | 15.87826 | 31982 ft | 415 kts | 278° |
| 2026-05-07 17:49 | 41.00330 | 15.80367 | 31980 ft | 415 kts | 278° |
| 2026-05-07 17:49 | 41.01576 | 15.72897 | 31991 ft | 415 kts | 278° |
| 2026-05-07 17:50 | 41.02773 | 15.65421 | 31977 ft | 415 kts | 278° |
| 2026-05-07 17:50 | 41.03916 | 15.57985 | 31995 ft | 416 kts | 278° |
| 2026-05-07 17:51 | 41.05072 | 15.50473 | 31991 ft | 416 kts | 278° |
| 2026-05-07 17:51 | 41.06238 | 15.42901 | 31989 ft | 417 kts | 278° |
| 2026-05-07 17:52 | 41.07383 | 15.35413 | 31983 ft | 417 kts | 278° |
| 2026-05-07 17:52 | 41.08351 | 15.29104 | 31974 ft | 417 kts | 278° |
| 2026-05-07 17:53 | 41.09689 | 15.20324 | 31970 ft | 419 kts | 278° |
| 2026-05-07 17:53 | 41.10839 | 15.12749 | 31970 ft | 419 kts | 278° |
| 2026-05-07 17:54 | 41.11793 | 15.06401 | 31970 ft | 419 kts | 278° |
| 2026-05-07 17:54 | 41.12929 | 14.98814 | 31974 ft | 420 kts | 277° |
| 2026-05-07 17:55 | 41.14058 | 14.91213 | 31985 ft | 421 kts | 278° |
| 2026-05-07 17:55 | 41.15185 | 14.83607 | 31962 ft | 424 kts | 278° |
| 2026-05-07 17:56 | 41.16315 | 14.75923 | 31961 ft | 426 kts | 278° |
| 2026-05-07 17:56 | 41.17456 | 14.68193 | 31965 ft | 427 kts | 278° |
| 2026-05-07 17:57 | 41.18596 | 14.60453 | 31972 ft | 428 kts | 278° |
| 2026-05-07 17:57 | 41.19727 | 14.52696 | 31980 ft | 428 kts | 277° |
| 2026-05-07 17:58 | 41.20850 | 14.44922 | 31974 ft | 429 kts | 277° |
| 2026-05-07 17:58 | 41.21965 | 14.37145 | 31971 ft | 429 kts | 277° |
| 2026-05-07 17:59 | 41.23081 | 14.29367 | 31961 ft | 429 kts | 277° |
| 2026-05-07 17:59 | 41.24193 | 14.21635 | 31932 ft | 420 kts | 277° |
| 2026-05-07 18:00 | 41.25273 | 14.14016 | 31773 ft | 421 kts | 277° |
| 2026-05-07 18:00 | 41.25811 | 14.10195 | 31478 ft | 421 kts | 277° |
| 2026-05-07 18:00 | 41.26349 | 14.06368 | 31217 ft | 422 kts | 277° |
| 2026-05-07 18:01 | 41.26888 | 14.02526 | 30715 ft | 424 kts | 277° |
| 2026-05-07 18:01 | 41.27429 | 13.98665 | 30100 ft | 425 kts | 277° |
| 2026-05-07 18:01 | 41.27965 | 13.94859 | 29442 ft | 424 kts | 277° |
| 2026-05-07 18:01 | 41.28506 | 13.91017 | 28843 ft | 422 kts | 278° |
| 2026-05-07 18:02 | 41.29572 | 13.83411 | 27652 ft | 416 kts | 278° |
| 2026-05-07 18:02 | 41.30095 | 13.79643 | 27045 ft | 413 kts | 278° |
| 2026-05-07 18:02 | 41.30611 | 13.75904 | 26456 ft | 410 kts | 278° |
| 2026-05-07 18:03 | 41.31120 | 13.72185 | 25871 ft | 407 kts | 279° |
| 2026-05-07 18:03 | 41.31623 | 13.68496 | 25287 ft | 404 kts | 279° |
| 2026-05-07 18:03 | 41.32124 | 13.64834 | 24711 ft | 401 kts | 279° |
| 2026-05-07 18:03 | 41.32621 | 13.61202 | 24138 ft | 398 kts | 279° |
| 2026-05-07 18:04 | 41.33113 | 13.57595 | 23586 ft | 395 kts | 280° |
| 2026-05-07 18:04 | 41.33602 | 13.54002 | 22976 ft | 393 kts | 279° |
| 2026-05-07 18:04 | 41.34088 | 13.50432 | 22442 ft | 391 kts | 279° |
| 2026-05-07 18:04 | 41.34571 | 13.46879 | 21931 ft | 390 kts | 279° |
| 2026-05-07 18:05 | 41.35050 | 13.43339 | 21413 ft | 388 kts | 279° |
| 2026-05-07 18:05 | 41.35528 | 13.39810 | 20918 ft | 386 kts | 279° |
| 2026-05-07 18:05 | 41.36003 | 13.36300 | 20421 ft | 385 kts | 278° |
| 2026-05-07 18:05 | 41.36475 | 13.32804 | 19922 ft | 383 kts | 278° |
| 2026-05-07 18:06 | 41.36940 | 13.29326 | 19421 ft | 381 kts | 278° |
| 2026-05-07 18:06 | 41.37402 | 13.25857 | 18906 ft | 379 kts | 278° |
| 2026-05-07 18:06 | 41.37862 | 13.22405 | 18398 ft | 378 kts | 277° |
| 2026-05-07 18:06 | 41.38322 | 13.18964 | 17812 ft | 376 kts | 277° |
| 2026-05-07 18:07 | 41.38776 | 13.15547 | 17267 ft | 374 kts | 277° |
| 2026-05-07 18:07 | 41.39227 | 13.12145 | 16733 ft | 372 kts | 278° |
| 2026-05-07 18:07 | 41.39675 | 13.08766 | 16173 ft | 369 kts | 278° |
| 2026-05-07 18:07 | 41.40116 | 13.05413 | 15623 ft | 366 kts | 278° |
| 2026-05-07 18:08 | 41.40548 | 13.02129 | 15075 ft | 364 kts | 278° |
| 2026-05-07 18:08 | 41.40984 | 12.98821 | 14541 ft | 362 kts | 278° |
| 2026-05-07 18:08 | 41.41415 | 12.95531 | 13976 ft | 359 kts | 278° |
| 2026-05-07 18:08 | 41.41843 | 12.92260 | 13382 ft | 357 kts | 278° |
| 2026-05-07 18:09 | 41.42269 | 12.89005 | 12816 ft | 356 kts | 278° |
| 2026-05-07 18:09 | 41.42690 | 12.85765 | 12267 ft | 354 kts | 278° |
| 2026-05-07 18:09 | 41.43109 | 12.82538 | 11714 ft | 353 kts | 278° |
| 2026-05-07 18:09 | 41.43524 | 12.79325 | 11164 ft | 351 kts | 278° |
| 2026-05-07 18:10 | 41.43934 | 12.76127 | 10622 ft | 349 kts | 278° |
| 2026-05-07 18:10 | 41.44337 | 12.72964 | 10453 ft | 346 kts | 278° |
| 2026-05-07 18:10 | 41.44742 | 12.69796 | 10364 ft | 347 kts | 278° |
| 2026-05-07 18:10 | 41.45150 | 12.66626 | 9963 ft | 345 kts | 278° |
| 2026-05-07 18:11 | 41.45552 | 12.63494 | 9529 ft | 340 kts | 278° |
| 2026-05-07 18:11 | 41.45819 | 12.61409 | 9266 ft | 335 kts | 278° |
| 2026-05-07 18:11 | 41.46330 | 12.57402 | 8752 ft | 327 kts | 278° |
| 2026-05-07 18:11 | 41.46708 | 12.54435 | 8370 ft | 322 kts | 278° |
| 2026-05-07 18:12 | 41.47078 | 12.51514 | 7994 ft | 318 kts | 278° |
| 2026-05-07 18:12 | 41.47445 | 12.48623 | 7624 ft | 314 kts | 278° |
| 2026-05-07 18:12 | 41.47806 | 12.45766 | 7256 ft | 311 kts | 278° |
| 2026-05-07 18:12 | 41.48394 | 12.43017 | 6894 ft | 309 kts | 298° |
| 2026-05-07 18:13 | 41.49803 | 12.40900 | 6559 ft | 307 kts | 327° |
| 2026-05-07 18:13 | 41.51749 | 12.39799 | 6196 ft | 303 kts | 344° |
| 2026-05-07 18:13 | 41.53755 | 12.38972 | 5795 ft | 301 kts | 344° |
| 2026-05-07 18:13 | 41.55756 | 12.38162 | 5189 ft | 298 kts | 343° |
| 2026-05-07 18:14 | 41.57701 | 12.37359 | 4781 ft | 284 kts | 344° |
| 2026-05-07 18:14 | 41.59538 | 12.36595 | 4410 ft | 271 kts | 343° |
| 2026-05-07 18:14 | 41.61296 | 12.35864 | 4056 ft | 259 kts | 345° |
| 2026-05-07 18:14 | 41.62975 | 12.35166 | 3727 ft | 247 kts | 344° |
| 2026-05-07 18:15 | 41.64585 | 12.34497 | 3413 ft | 236 kts | 345° |
| 2026-05-07 18:15 | 41.66122 | 12.33858 | 3106 ft | 226 kts | 344° |
| 2026-05-07 18:15 | 41.67592 | 12.33246 | 2811 ft | 216 kts | 345° |
| 2026-05-07 18:15 | 41.68977 | 12.32670 | 2528 ft | 207 kts | 344° |
| 2026-05-07 18:16 | 41.70325 | 12.32109 | 2277 ft | 198 kts | 344° |
| 2026-05-07 18:16 | 41.71600 | 12.31577 | 1998 ft | 187 kts | 343° |
| 2026-05-07 18:16 | 41.72814 | 12.31072 | 1738 ft | 177 kts | 344° |
| 2026-05-07 18:16 | 41.73922 | 12.30610 | 1537 ft | 155 kts | 343° |
| 2026-05-07 18:17 | 41.74910 | 12.30198 | 1322 ft | 140 kts | 343° |
| 2026-05-07 18:17 | 41.75812 | 12.29822 | 1141 ft | 133 kts | 342° |
| 2026-05-07 18:17 | 41.76691 | 12.29454 | 964 ft | 132 kts | 342° |
| 2026-05-07 18:17 | 41.77553 | 12.29096 | 819 ft | 131 kts | 341° |
| 2026-05-07 18:18 | 41.78423 | 12.28733 | 636 ft | 132 kts | 340° |
| 2026-05-07 18:18 | 41.79300 | 12.28365 | 434 ft | 134 kts | 339° |
| 2026-05-07 18:18 | 41.80186 | 12.27994 | 286 ft | 133 kts | 341° |
| 2026-05-07 18:18 | 41.81062 | 12.27630 | 108 ft | 132 kts | 341° |
| 2026-05-07 18:19 | 41.81914 | 12.27275 | 17 ft | 116 kts | 342° |
| 2026-05-07 18:19 | 41.82468 | 12.27030 | 14 ft | 47 kts | 334° |
| 2026-05-07 18:19 | 41.82634 | 12.26868 | 15 ft | 19 kts | 313° |
| 2026-05-07 18:19 | 41.82701 | 12.26768 | 15 ft | 14 kts | 312° |
| 2026-05-07 18:20 | 41.82741 | 12.26647 | 15 ft | 16 kts | 266° |
| 2026-05-07 18:20 | 41.82654 | 12.26640 | 16 ft | 18 kts | 160° |
| 2026-05-07 18:20 | 41.82505 | 12.26705 | 15 ft | 26 kts | 162° |
| 2026-05-07 18:20 | 41.82325 | 12.26780 | 15 ft | 27 kts | 162° |
| 2026-05-07 18:21 | 41.82137 | 12.26858 | 15 ft | 29 kts | 161° |
| 2026-05-07 18:21 | 41.81948 | 12.26938 | 15 ft | 29 kts | 163° |
| 2026-05-07 18:21 | 41.81766 | 12.27014 | 15 ft | 28 kts | 162° |
| 2026-05-07 18:21 | 41.81598 | 12.27084 | 15 ft | 26 kts | 162° |
| 2026-05-07 18:22 | 41.81434 | 12.27153 | 15 ft | 25 kts | 162° |
| 2026-05-07 18:22 | 41.81336 | 12.27194 | 17 ft | 23 kts | 162° |
| 2026-05-07 18:22 | 41.81115 | 12.27287 | 17 ft | 27 kts | 162° |
| 2026-05-07 18:22 | 41.80927 | 12.27351 | 15 ft | 29 kts | 178° |
| 2026-05-07 18:23 | 41.80734 | 12.27310 | 15 ft | 26 kts | 190° |
| 2026-05-07 18:23 | 41.80640 | 12.27164 | 16 ft | 19 kts | 248° |
| 2026-05-07 18:23 | 41.80590 | 12.26986 | 15 ft | 22 kts | 251° |
| 2026-05-07 18:23 | 41.80538 | 12.26799 | 16 ft | 23 kts | 249° |
| 2026-05-07 18:24 | 41.80482 | 12.26588 | 15 ft | 25 kts | 249° |
| 2026-05-07 18:24 | 41.80429 | 12.26399 | 17 ft | 23 kts | 250° |
| 2026-05-07 18:24 | 41.80371 | 12.26187 | 17 ft | 25 kts | 249° |
| 2026-05-07 18:24 | 41.80231 | 12.26044 | 16 ft | 27 kts | 205° |
| 2026-05-07 18:25 | 41.80058 | 12.25936 | 16 ft | 27 kts | 204° |
| 2026-05-07 18:25 | 41.79885 | 12.25836 | 15 ft | 25 kts | 193° |
| 2026-05-07 18:25 | 41.79733 | 12.25761 | 17 ft | 17 kts | 205° |
| 2026-05-07 18:25 | 41.79673 | 12.25784 | 15 ft | 7 kts | 114° |
| 2026-05-07 18:26 | 41.79668 | 12.25797 | 15 ft | 0 kts | 115° |